sensor_id;sensor_type;location;lat;lon;timestamp;temperature;humidity
10848;DHT22;5477;48.806;9.154;2023-06-26T00:00:07;20.80;96.70
10848;DHT22;5477;48.806;9.154;2023-06-26T00:02:37;20.80;97.30
10848;DHT22;5477;48.806;9.154;2023-06-26T00:05:06;20.70;97.70
10848;DHT22;5477;48.806;9.154;2023-06-26T00:07:34;20.60;98.10
10848;DHT22;5477;48.806;9.154;2023-06-26T00:10:03;20.50;98.70
10848;DHT22;5477;48.806;9.154;2023-06-26T00:12:32;20.30;99.10
10848;DHT22;5477;48.806;9.154;2023-06-26T00:15:02;20.30;99.50
10848;DHT22;5477;48.806;9.154;2023-06-26T00:17:30;20.20;99.90
10848;DHT22;5477;48.806;9.154;2023-06-26T00:20:04;20.20;99.90
10848;DHT22;5477;48.806;9.154;2023-06-26T00:22:37;20.20;99.90
10848;DHT22;5477;48.806;9.154;2023-06-26T00:25:07;20.20;99.90
10848;DHT22;5477;48.806;9.154;2023-06-26T00:27:35;20.10;99.90
10848;DHT22;5477;48.806;9.154;2023-06-26T00:30:05;20.10;99.90
10848;DHT22;5477;48.806;9.154;2023-06-26T00:32:36;20.10;99.90
10848;DHT22;5477;48.806;9.154;2023-06-26T00:35:05;20.00;99.90
10848;DHT22;5477;48.806;9.154;2023-06-26T00:37:33;20.00;99.90
10848;DHT22;5477;48.806;9.154;2023-06-26T00:40:02;19.90;99.90
10848;DHT22;5477;48.806;9.154;2023-06-26T00:42:32;19.90;99.90
10848;DHT22;5477;48.806;9.154;2023-06-26T00:45:00;19.80;99.90
10848;DHT22;5477;48.806;9.154;2023-06-26T00:47:31;19.70;99.90
10848;DHT22;5477;48.806;9.154;2023-06-26T00:49:59;19.70;99.90
10848;DHT22;5477;48.806;9.154;2023-06-26T00:52:27;19.60;99.90
10848;DHT22;5477;48.806;9.154;2023-06-26T00:54:56;19.60;99.90
10848;DHT22;5477;48.806;9.154;2023-06-26T00:57:24;19.60;99.90
10848;DHT22;5477;48.806;9.154;2023-06-26T00:59:53;19.50;99.90
10848;DHT22;5477;48.806;9.154;2023-06-26T01:02:21;19.50;99.90
10848;DHT22;5477;48.806;9.154;2023-06-26T01:04:52;19.50;99.90
10848;DHT22;5477;48.806;9.154;2023-06-26T01:07:21;19.40;99.90
10848;DHT22;5477;48.806;9.154;2023-06-26T01:09:50;19.40;99.90
10848;DHT22;5477;48.806;9.154;2023-06-26T01:12:18;19.30;99.90
10848;DHT22;5477;48.806;9.154;2023-06-26T01:14:48;19.30;99.90
10848;DHT22;5477;48.806;9.154;2023-06-26T01:17:17;19.20;99.90
10848;DHT22;5477;48.806;9.154;2023-06-26T01:19:45;19.20;99.90
10848;DHT22;5477;48.806;9.154;2023-06-26T01:22:20;19.20;99.90
10848;DHT22;5477;48.806;9.154;2023-06-26T01:25:01;19.20;99.90
10848;DHT22;5477;48.806;9.154;2023-06-26T01:27:32;19.20;99.90
10848;DHT22;5477;48.806;9.154;2023-06-26T01:30:02;19.20;99.90
10848;DHT22;5477;48.806;9.154;2023-06-26T01:32:32;19.10;99.90
10848;DHT22;5477;48.806;9.154;2023-06-26T01:35:02;19.10;99.90
10848;DHT22;5477;48.806;9.154;2023-06-26T01:37:30;19.00;99.90
10848;DHT22;5477;48.806;9.154;2023-06-26T01:39:58;19.00;99.90
10848;DHT22;5477;48.806;9.154;2023-06-26T01:42:26;19.00;99.90
10848;DHT22;5477;48.806;9.154;2023-06-26T01:44:56;18.90;99.90
10848;DHT22;5477;48.806;9.154;2023-06-26T01:47:26;18.90;99.90
10848;DHT22;5477;48.806;9.154;2023-06-26T01:49:59;18.90;99.90
10848;DHT22;5477;48.806;9.154;2023-06-26T01:52:31;19.00;99.90
10848;DHT22;5477;48.806;9.154;2023-06-26T01:55:10;19.00;99.90
10848;DHT22;5477;48.806;9.154;2023-06-26T01:57:42;19.00;99.90
10848;DHT22;5477;48.806;9.154;2023-06-26T02:00:13;19.00;99.90
10848;DHT22;5477;48.806;9.154;2023-06-26T02:02:44;19.00;99.90
10848;DHT22;5477;48.806;9.154;2023-06-26T02:05:13;18.90;99.90
10848;DHT22;5477;48.806;9.154;2023-06-26T02:07:42;18.90;99.90
10848;DHT22;5477;48.806;9.154;2023-06-26T02:10:11;18.90;99.90
10848;DHT22;5477;48.806;9.154;2023-06-26T02:12:39;18.80;99.90
10848;DHT22;5477;48.806;9.154;2023-06-26T02:15:08;18.80;99.90
10848;DHT22;5477;48.806;9.154;2023-06-26T02:17:40;18.70;99.90
10848;DHT22;5477;48.806;9.154;2023-06-26T02:20:08;18.70;99.90
10848;DHT22;5477;48.806;9.154;2023-06-26T02:22:37;18.70;99.90
10848;DHT22;5477;48.806;9.154;2023-06-26T02:25:08;18.70;99.90
10848;DHT22;5477;48.806;9.154;2023-06-26T02:27:37;18.70;99.90
10848;DHT22;5477;48.806;9.154;2023-06-26T02:30:07;18.80;99.90
10848;DHT22;5477;48.806;9.154;2023-06-26T02:32:36;18.80;99.90
10848;DHT22;5477;48.806;9.154;2023-06-26T02:35:06;18.70;99.90
10848;DHT22;5477;48.806;9.154;2023-06-26T02:37:35;18.80;99.90
10848;DHT22;5477;48.806;9.154;2023-06-26T02:40:04;18.80;99.90
10848;DHT22;5477;48.806;9.154;2023-06-26T02:42:34;18.80;99.90
10848;DHT22;5477;48.806;9.154;2023-06-26T02:45:02;18.90;99.90
10848;DHT22;5477;48.806;9.154;2023-06-26T02:47:31;19.00;99.90
10848;DHT22;5477;48.806;9.154;2023-06-26T02:49:59;19.10;99.90
10848;DHT22;5477;48.806;9.154;2023-06-26T02:52:35;19.20;99.90
10848;DHT22;5477;48.806;9.154;2023-06-26T02:55:04;19.20;99.90
10848;DHT22;5477;48.806;9.154;2023-06-26T02:57:32;19.30;99.90
10848;DHT22;5477;48.806;9.154;2023-06-26T03:00:00;19.30;99.90
10848;DHT22;5477;48.806;9.154;2023-06-26T03:02:30;19.30;99.90
10848;DHT22;5477;48.806;9.154;2023-06-26T03:04:58;19.30;99.90
10848;DHT22;5477;48.806;9.154;2023-06-26T03:07:26;19.30;99.90
10848;DHT22;5477;48.806;9.154;2023-06-26T03:09:55;19.30;99.90
10848;DHT22;5477;48.806;9.154;2023-06-26T03:12:25;19.30;99.90
10848;DHT22;5477;48.806;9.154;2023-06-26T03:14:53;19.40;99.90
10848;DHT22;5477;48.806;9.154;2023-06-26T03:17:21;19.40;99.90
10848;DHT22;5477;48.806;9.154;2023-06-26T03:19:56;19.40;99.90
10848;DHT22;5477;48.806;9.154;2023-06-26T03:22:30;19.40;99.90
10848;DHT22;5477;48.806;9.154;2023-06-26T03:24:59;19.50;99.90
10848;DHT22;5477;48.806;9.154;2023-06-26T03:27:29;19.50;99.90
10848;DHT22;5477;48.806;9.154;2023-06-26T03:29:57;19.60;99.90
10848;DHT22;5477;48.806;9.154;2023-06-26T03:32:25;19.60;99.90
10848;DHT22;5477;48.806;9.154;2023-06-26T03:34:54;19.60;99.90
10848;DHT22;5477;48.806;9.154;2023-06-26T03:37:22;19.60;99.90
10848;DHT22;5477;48.806;9.154;2023-06-26T03:39:50;19.60;99.90
10848;DHT22;5477;48.806;9.154;2023-06-26T03:42:20;19.60;99.90
10848;DHT22;5477;48.806;9.154;2023-06-26T03:44:48;19.50;99.90
10848;DHT22;5477;48.806;9.154;2023-06-26T03:47:18;19.60;99.90
10848;DHT22;5477;48.806;9.154;2023-06-26T03:49:46;19.60;99.90
10848;DHT22;5477;48.806;9.154;2023-06-26T03:52:14;19.60;99.90
10848;DHT22;5477;48.806;9.154;2023-06-26T03:54:42;19.70;99.90
10848;DHT22;5477;48.806;9.154;2023-06-26T03:57:10;19.70;99.90
10848;DHT22;5477;48.806;9.154;2023-06-26T03:59:39;19.70;99.90
10848;DHT22;5477;48.806;9.154;2023-06-26T04:02:07;19.80;99.90
10848;DHT22;5477;48.806;9.154;2023-06-26T04:04:36;19.80;99.90
10848;DHT22;5477;48.806;9.154;2023-06-26T04:07:04;19.80;99.90
10848;DHT22;5477;48.806;9.154;2023-06-26T04:09:32;19.90;99.90
10848;DHT22;5477;48.806;9.154;2023-06-26T04:12:00;19.90;99.90
10848;DHT22;5477;48.806;9.154;2023-06-26T04:14:28;20.00;99.90
10848;DHT22;5477;48.806;9.154;2023-06-26T04:16:58;20.00;99.90
10848;DHT22;5477;48.806;9.154;2023-06-26T04:19:28;20.10;99.90
10848;DHT22;5477;48.806;9.154;2023-06-26T04:21:57;20.20;99.90
10848;DHT22;5477;48.806;9.154;2023-06-26T04:24:25;20.20;99.90
10848;DHT22;5477;48.806;9.154;2023-06-26T04:26:53;20.20;99.90
10848;DHT22;5477;48.806;9.154;2023-06-26T04:29:24;20.30;99.90
10848;DHT22;5477;48.806;9.154;2023-06-26T04:31:54;20.30;99.90
10848;DHT22;5477;48.806;9.154;2023-06-26T04:34:27;20.30;99.90
10848;DHT22;5477;48.806;9.154;2023-06-26T04:36:55;20.40;99.90
10848;DHT22;5477;48.806;9.154;2023-06-26T04:39:23;20.50;99.90
10848;DHT22;5477;48.806;9.154;2023-06-26T04:41:51;20.60;99.90
10848;DHT22;5477;48.806;9.154;2023-06-26T04:44:19;20.60;99.90
10848;DHT22;5477;48.806;9.154;2023-06-26T04:46:47;20.70;99.90
10848;DHT22;5477;48.806;9.154;2023-06-26T04:49:19;20.80;99.90
10848;DHT22;5477;48.806;9.154;2023-06-26T04:51:48;20.90;99.90
10848;DHT22;5477;48.806;9.154;2023-06-26T04:54:17;21.00;99.90
10848;DHT22;5477;48.806;9.154;2023-06-26T04:56:45;21.10;99.90
10848;DHT22;5477;48.806;9.154;2023-06-26T04:59:14;21.20;99.90
10848;DHT22;5477;48.806;9.154;2023-06-26T05:01:42;21.30;99.90
10848;DHT22;5477;48.806;9.154;2023-06-26T05:04:15;21.40;99.90
10848;DHT22;5477;48.806;9.154;2023-06-26T05:06:44;21.50;99.90
10848;DHT22;5477;48.806;9.154;2023-06-26T05:09:13;21.60;99.90
10848;DHT22;5477;48.806;9.154;2023-06-26T05:11:41;21.70;99.90
10848;DHT22;5477;48.806;9.154;2023-06-26T05:14:09;21.80;99.90
10848;DHT22;5477;48.806;9.154;2023-06-26T05:16:39;22.00;99.90
10848;DHT22;5477;48.806;9.154;2023-06-26T05:19:07;22.10;99.90
10848;DHT22;5477;48.806;9.154;2023-06-26T05:21:36;22.20;99.90
10848;DHT22;5477;48.806;9.154;2023-06-26T05:24:04;22.30;99.90
10848;DHT22;5477;48.806;9.154;2023-06-26T05:26:34;22.40;99.90
10848;DHT22;5477;48.806;9.154;2023-06-26T05:29:03;22.60;99.90
10848;DHT22;5477;48.806;9.154;2023-06-26T05:31:33;22.70;99.90
10848;DHT22;5477;48.806;9.154;2023-06-26T05:34:03;22.90;99.90
10848;DHT22;5477;48.806;9.154;2023-06-26T05:36:34;23.10;99.90
10848;DHT22;5477;48.806;9.154;2023-06-26T05:39:03;23.20;99.90
10848;DHT22;5477;48.806;9.154;2023-06-26T05:41:32;23.30;99.90
10848;DHT22;5477;48.806;9.154;2023-06-26T05:44:01;23.50;99.90
10848;DHT22;5477;48.806;9.154;2023-06-26T05:46:29;23.60;99.90
10848;DHT22;5477;48.806;9.154;2023-06-26T05:48:57;23.60;99.90
10848;DHT22;5477;48.806;9.154;2023-06-26T05:51:25;23.70;99.90
10848;DHT22;5477;48.806;9.154;2023-06-26T05:53:54;23.70;99.90
10848;DHT22;5477;48.806;9.154;2023-06-26T05:56:23;23.80;99.90
10848;DHT22;5477;48.806;9.154;2023-06-26T05:58:52;23.80;99.90
10848;DHT22;5477;48.806;9.154;2023-06-26T06:01:22;23.90;99.90
10848;DHT22;5477;48.806;9.154;2023-06-26T06:03:50;24.10;99.90
10848;DHT22;5477;48.806;9.154;2023-06-26T06:06:18;24.00;99.90
10848;DHT22;5477;48.806;9.154;2023-06-26T06:08:46;24.20;99.90
10848;DHT22;5477;48.806;9.154;2023-06-26T06:11:15;24.30;99.90
10848;DHT22;5477;48.806;9.154;2023-06-26T06:13:43;24.40;99.90
10848;DHT22;5477;48.806;9.154;2023-06-26T06:16:11;24.40;99.90
10848;DHT22;5477;48.806;9.154;2023-06-26T06:18:40;24.40;99.90
10848;DHT22;5477;48.806;9.154;2023-06-26T06:21:08;24.40;99.90
10848;DHT22;5477;48.806;9.154;2023-06-26T06:23:36;24.50;99.90
10848;DHT22;5477;48.806;9.154;2023-06-26T06:26:05;24.50;99.90
10848;DHT22;5477;48.806;9.154;2023-06-26T06:28:33;24.60;99.90
10848;DHT22;5477;48.806;9.154;2023-06-26T06:31:01;24.70;99.90
10848;DHT22;5477;48.806;9.154;2023-06-26T06:33:29;24.80;99.90
10848;DHT22;5477;48.806;9.154;2023-06-26T06:35:58;24.90;99.50
10848;DHT22;5477;48.806;9.154;2023-06-26T06:38:26;25.00;99.20
10848;DHT22;5477;48.806;9.154;2023-06-26T06:40:54;25.00;99.20
10848;DHT22;5477;48.806;9.154;2023-06-26T06:43:22;25.10;98.90
10848;DHT22;5477;48.806;9.154;2023-06-26T06:45:50;25.30;98.60
10848;DHT22;5477;48.806;9.154;2023-06-26T06:48:18;25.30;98.50
10848;DHT22;5477;48.806;9.154;2023-06-26T06:50:46;25.50;98.10
10848;DHT22;5477;48.806;9.154;2023-06-26T06:53:15;25.50;97.70
10848;DHT22;5477;48.806;9.154;2023-06-26T06:55:43;25.70;97.80
10848;DHT22;5477;48.806;9.154;2023-06-26T06:58:11;25.70;97.40
10848;DHT22;5477;48.806;9.154;2023-06-26T07:00:39;25.80;97.00
10848;DHT22;5477;48.806;9.154;2023-06-26T07:03:07;25.80;96.70
10848;DHT22;5477;48.806;9.154;2023-06-26T07:05:37;25.90;96.80
10848;DHT22;5477;48.806;9.154;2023-06-26T07:08:05;26.00;96.50
10848;DHT22;5477;48.806;9.154;2023-06-26T07:10:35;26.00;96.20
10848;DHT22;5477;48.806;9.154;2023-06-26T07:13:05;26.10;96.20
10848;DHT22;5477;48.806;9.154;2023-06-26T07:15:33;26.20;96.10
10848;DHT22;5477;48.806;9.154;2023-06-26T07:18:01;26.30;95.80
10848;DHT22;5477;48.806;9.154;2023-06-26T07:20:29;26.50;95.30
10848;DHT22;5477;48.806;9.154;2023-06-26T07:22:57;26.50;94.70
10848;DHT22;5477;48.806;9.154;2023-06-26T07:25:25;26.60;94.60
10848;DHT22;5477;48.806;9.154;2023-06-26T07:27:54;26.60;94.40
10848;DHT22;5477;48.806;9.154;2023-06-26T07:30:22;26.70;94.00
10848;DHT22;5477;48.806;9.154;2023-06-26T07:32:51;26.80;94.10
10848;DHT22;5477;48.806;9.154;2023-06-26T07:35:19;26.90;93.60
10848;DHT22;5477;48.806;9.154;2023-06-26T07:37:47;27.10;93.30
10848;DHT22;5477;48.806;9.154;2023-06-26T07:40:14;27.20;92.80
10848;DHT22;5477;48.806;9.154;2023-06-26T07:42:44;27.30;92.50
10848;DHT22;5477;48.806;9.154;2023-06-26T07:45:14;27.30;92.10
10848;DHT22;5477;48.806;9.154;2023-06-26T07:47:42;27.40;92.10
10848;DHT22;5477;48.806;9.154;2023-06-26T07:50:10;27.50;91.70
10848;DHT22;5477;48.806;9.154;2023-06-26T07:52:38;27.70;91.50
10848;DHT22;5477;48.806;9.154;2023-06-26T07:55:07;27.80;90.90
10848;DHT22;5477;48.806;9.154;2023-06-26T07:57:35;28.00;90.50
10848;DHT22;5477;48.806;9.154;2023-06-26T08:00:03;28.00;90.20
10848;DHT22;5477;48.806;9.154;2023-06-26T08:02:41;28.00;90.30
10848;DHT22;5477;48.806;9.154;2023-06-26T08:05:09;28.00;89.90
10848;DHT22;5477;48.806;9.154;2023-06-26T08:07:37;28.20;89.40
10848;DHT22;5477;48.806;9.154;2023-06-26T08:10:06;28.30;89.00
10848;DHT22;5477;48.806;9.154;2023-06-26T08:12:34;28.40;88.50
10848;DHT22;5477;48.806;9.154;2023-06-26T08:15:03;28.60;87.60
10848;DHT22;5477;48.806;9.154;2023-06-26T08:17:31;28.70;86.20
10848;DHT22;5477;48.806;9.154;2023-06-26T08:20:01;28.70;85.10
10848;DHT22;5477;48.806;9.154;2023-06-26T08:22:29;28.80;85.20
10848;DHT22;5477;48.806;9.154;2023-06-26T08:24:57;28.90;84.80
10848;DHT22;5477;48.806;9.154;2023-06-26T08:27:25;29.20;83.00
10848;DHT22;5477;48.806;9.154;2023-06-26T08:29:53;29.30;82.00
10848;DHT22;5477;48.806;9.154;2023-06-26T08:32:21;29.30;80.90
10848;DHT22;5477;48.806;9.154;2023-06-26T08:34:49;29.30;81.20
10848;DHT22;5477;48.806;9.154;2023-06-26T08:37:18;29.30;81.40
10848;DHT22;5477;48.806;9.154;2023-06-26T08:39:47;29.30;81.90
10848;DHT22;5477;48.806;9.154;2023-06-26T08:42:15;29.30;81.70
10848;DHT22;5477;48.806;9.154;2023-06-26T08:44:43;29.40;80.60
10848;DHT22;5477;48.806;9.154;2023-06-26T08:47:28;29.50;79.70
10848;DHT22;5477;48.806;9.154;2023-06-26T08:50:04;29.60;80.10
10848;DHT22;5477;48.806;9.154;2023-06-26T08:52:36;29.70;77.20
10848;DHT22;5477;48.806;9.154;2023-06-26T08:55:09;29.60;78.20
10848;DHT22;5477;48.806;9.154;2023-06-26T08:57:38;29.80;78.40
10848;DHT22;5477;48.806;9.154;2023-06-26T09:00:08;29.90;78.10
10848;DHT22;5477;48.806;9.154;2023-06-26T09:02:37;30.00;77.90
10848;DHT22;5477;48.806;9.154;2023-06-26T09:05:08;30.20;76.60
10848;DHT22;5477;48.806;9.154;2023-06-26T09:07:37;30.20;75.00
10848;DHT22;5477;48.806;9.154;2023-06-26T09:10:07;30.20;74.10
10848;DHT22;5477;48.806;9.154;2023-06-26T09:12:35;30.20;74.30
10848;DHT22;5477;48.806;9.154;2023-06-26T09:15:05;30.30;73.50
10848;DHT22;5477;48.806;9.154;2023-06-26T09:17:39;30.20;73.90
10848;DHT22;5477;48.806;9.154;2023-06-26T09:20:09;30.30;73.70
10848;DHT22;5477;48.806;9.154;2023-06-26T09:22:40;30.40;72.70
10848;DHT22;5477;48.806;9.154;2023-06-26T09:25:09;30.50;71.90
10848;DHT22;5477;48.806;9.154;2023-06-26T09:27:37;30.70;71.60
10848;DHT22;5477;48.806;9.154;2023-06-26T09:30:06;30.90;70.40
10848;DHT22;5477;48.806;9.154;2023-06-26T09:32:34;30.90;70.10
10848;DHT22;5477;48.806;9.154;2023-06-26T09:35:04;31.00;70.30
10848;DHT22;5477;48.806;9.154;2023-06-26T09:37:34;31.30;69.90
10848;DHT22;5477;48.806;9.154;2023-06-26T09:40:04;31.60;69.10
10848;DHT22;5477;48.806;9.154;2023-06-26T09:42:33;31.90;68.20
10848;DHT22;5477;48.806;9.154;2023-06-26T09:45:02;32.10;65.70
10848;DHT22;5477;48.806;9.154;2023-06-26T09:47:31;32.10;65.70
10848;DHT22;5477;48.806;9.154;2023-06-26T09:49:59;32.20;65.80
10848;DHT22;5477;48.806;9.154;2023-06-26T09:52:27;32.30;65.10
10848;DHT22;5477;48.806;9.154;2023-06-26T09:55:09;32.10;65.20
10848;DHT22;5477;48.806;9.154;2023-06-26T09:57:38;31.90;65.60
10848;DHT22;5477;48.806;9.154;2023-06-26T10:00:07;31.80;66.70
10848;DHT22;5477;48.806;9.154;2023-06-26T10:02:39;31.70;66.60
10848;DHT22;5477;48.806;9.154;2023-06-26T10:05:07;31.60;66.80
10848;DHT22;5477;48.806;9.154;2023-06-26T10:07:36;31.70;67.50
10848;DHT22;5477;48.806;9.154;2023-06-26T10:10:06;31.80;66.90
10848;DHT22;5477;48.806;9.154;2023-06-26T10:12:36;31.90;67.40
10848;DHT22;5477;48.806;9.154;2023-06-26T10:15:05;31.80;67.40
10848;DHT22;5477;48.806;9.154;2023-06-26T10:17:35;31.90;67.90
10848;DHT22;5477;48.806;9.154;2023-06-26T10:20:06;32.20;67.90
10848;DHT22;5477;48.806;9.154;2023-06-26T10:22:41;32.20;68.20
10848;DHT22;5477;48.806;9.154;2023-06-26T10:25:14;32.50;68.20
10848;DHT22;5477;48.806;9.154;2023-06-26T10:27:50;32.50;67.50
10848;DHT22;5477;48.806;9.154;2023-06-26T10:30:22;32.60;67.60
10848;DHT22;5477;48.806;9.154;2023-06-26T10:32:51;32.50;67.90
10848;DHT22;5477;48.806;9.154;2023-06-26T10:35:20;32.40;68.30
10848;DHT22;5477;48.806;9.154;2023-06-26T10:37:49;32.10;68.90
10848;DHT22;5477;48.806;9.154;2023-06-26T10:40:22;31.60;69.10
10848;DHT22;5477;48.806;9.154;2023-06-26T10:43:05;31.20;70.40
10848;DHT22;5477;48.806;9.154;2023-06-26T10:45:34;31.00;71.40
10848;DHT22;5477;48.806;9.154;2023-06-26T10:48:02;31.20;70.70
10848;DHT22;5477;48.806;9.154;2023-06-26T10:50:33;31.40;69.00
10848;DHT22;5477;48.806;9.154;2023-06-26T10:53:16;31.20;65.70
10848;DHT22;5477;48.806;9.154;2023-06-26T10:55:56;30.90;67.50
10848;DHT22;5477;48.806;9.154;2023-06-26T10:58:33;30.80;66.80
10848;DHT22;5477;48.806;9.154;2023-06-26T11:01:22;31.00;67.20
10848;DHT22;5477;48.806;9.154;2023-06-26T11:04:03;31.00;66.70
10848;DHT22;5477;48.806;9.154;2023-06-26T11:06:32;31.30;67.00
10848;DHT22;5477;48.806;9.154;2023-06-26T11:09:07;31.30;66.80
10848;DHT22;5477;48.806;9.154;2023-06-26T11:11:59;31.40;67.40
10848;DHT22;5477;48.806;9.154;2023-06-26T11:14:33;31.30;67.90
10848;DHT22;5477;48.806;9.154;2023-06-26T11:17:03;31.20;69.10
10848;DHT22;5477;48.806;9.154;2023-06-26T11:19:32;31.40;68.60
10848;DHT22;5477;48.806;9.154;2023-06-26T11:22:02;31.40;66.10
10848;DHT22;5477;48.806;9.154;2023-06-26T11:24:31;31.40;67.00
10848;DHT22;5477;48.806;9.154;2023-06-26T11:27:01;31.20;68.00
10848;DHT22;5477;48.806;9.154;2023-06-26T11:29:32;31.30;69.10
10848;DHT22;5477;48.806;9.154;2023-06-26T11:32:03;31.10;68.70
10848;DHT22;5477;48.806;9.154;2023-06-26T11:34:33;31.10;69.30
10848;DHT22;5477;48.806;9.154;2023-06-26T11:37:01;31.20;68.80
10848;DHT22;5477;48.806;9.154;2023-06-26T11:39:30;31.00;70.20
10848;DHT22;5477;48.806;9.154;2023-06-26T11:41:59;30.90;72.00
10848;DHT22;5477;48.806;9.154;2023-06-26T11:44:32;31.20;72.50
10848;DHT22;5477;48.806;9.154;2023-06-26T11:47:07;31.50;72.10
10848;DHT22;5477;48.806;9.154;2023-06-26T11:49:35;31.50;72.80
10848;DHT22;5477;48.806;9.154;2023-06-26T11:52:03;31.90;72.40
10848;DHT22;5477;48.806;9.154;2023-06-26T11:54:32;32.50;71.00
10848;DHT22;5477;48.806;9.154;2023-06-26T11:57:00;32.90;70.40
10848;DHT22;5477;48.806;9.154;2023-06-26T11:59:37;32.80;71.20
10848;DHT22;5477;48.806;9.154;2023-06-26T12:02:07;32.80;71.40
10848;DHT22;5477;48.806;9.154;2023-06-26T12:04:37;32.60;71.90
10848;DHT22;5477;48.806;9.154;2023-06-26T12:07:06;32.40;72.40
10848;DHT22;5477;48.806;9.154;2023-06-26T12:09:38;32.70;71.90
10848;DHT22;5477;48.806;9.154;2023-06-26T12:12:08;32.40;71.70
10848;DHT22;5477;48.806;9.154;2023-06-26T12:14:38;32.40;72.60
10848;DHT22;5477;48.806;9.154;2023-06-26T12:17:09;32.20;72.50
10848;DHT22;5477;48.806;9.154;2023-06-26T12:19:38;32.50;72.50
10848;DHT22;5477;48.806;9.154;2023-06-26T12:22:07;32.60;71.90
10848;DHT22;5477;48.806;9.154;2023-06-26T12:24:37;32.80;71.50
10848;DHT22;5477;48.806;9.154;2023-06-26T12:27:08;33.30;71.60
10848;DHT22;5477;48.806;9.154;2023-06-26T12:29:39;33.20;70.00
10848;DHT22;5477;48.806;9.154;2023-06-26T12:32:11;33.30;69.90
10848;DHT22;5477;48.806;9.154;2023-06-26T12:34:39;33.40;70.20
10848;DHT22;5477;48.806;9.154;2023-06-26T12:37:09;33.40;70.40
10848;DHT22;5477;48.806;9.154;2023-06-26T12:39:48;33.00;70.80
10848;DHT22;5477;48.806;9.154;2023-06-26T12:42:17;33.40;69.90
10848;DHT22;5477;48.806;9.154;2023-06-26T12:44:47;33.70;69.50
10848;DHT22;5477;48.806;9.154;2023-06-26T12:47:16;34.00;68.40
10848;DHT22;5477;48.806;9.154;2023-06-26T12:49:49;33.80;67.20
10848;DHT22;5477;48.806;9.154;2023-06-26T12:52:18;33.70;67.60
10848;DHT22;5477;48.806;9.154;2023-06-26T12:54:51;33.80;67.80
10848;DHT22;5477;48.806;9.154;2023-06-26T12:57:19;34.10;66.60
10848;DHT22;5477;48.806;9.154;2023-06-26T12:59:49;34.30;65.70
10848;DHT22;5477;48.806;9.154;2023-06-26T13:02:18;34.60;64.20
10848;DHT22;5477;48.806;9.154;2023-06-26T13:04:47;34.20;64.60
10848;DHT22;5477;48.806;9.154;2023-06-26T13:07:15;34.00;65.40
10848;DHT22;5477;48.806;9.154;2023-06-26T13:09:43;34.10;65.30
10848;DHT22;5477;48.806;9.154;2023-06-26T13:12:12;34.30;65.10
10848;DHT22;5477;48.806;9.154;2023-06-26T13:14:40;34.00;64.90
10848;DHT22;5477;48.806;9.154;2023-06-26T13:17:11;33.80;64.80
10848;DHT22;5477;48.806;9.154;2023-06-26T13:19:39;33.70;65.80
10848;DHT22;5477;48.806;9.154;2023-06-26T13:22:07;34.10;63.20
10848;DHT22;5477;48.806;9.154;2023-06-26T13:24:35;34.40;62.40
10848;DHT22;5477;48.806;9.154;2023-06-26T13:27:03;34.60;61.80
10848;DHT22;5477;48.806;9.154;2023-06-26T13:29:32;34.60;61.40
10848;DHT22;5477;48.806;9.154;2023-06-26T13:32:00;34.40;61.10
10848;DHT22;5477;48.806;9.154;2023-06-26T13:34:29;33.90;60.80
10848;DHT22;5477;48.806;9.154;2023-06-26T13:36:57;33.50;62.00
10848;DHT22;5477;48.806;9.154;2023-06-26T13:39:27;33.30;61.90
10848;DHT22;5477;48.806;9.154;2023-06-26T13:41:55;34.00;61.50
10848;DHT22;5477;48.806;9.154;2023-06-26T13:44:24;34.50;59.20
10848;DHT22;5477;48.806;9.154;2023-06-26T13:47:13;34.20;59.00
10848;DHT22;5477;48.806;9.154;2023-06-26T13:49:43;34.20;58.00
10848;DHT22;5477;48.806;9.154;2023-06-26T13:52:11;34.30;57.60
10848;DHT22;5477;48.806;9.154;2023-06-26T13:54:38;34.40;55.20
10848;DHT22;5477;48.806;9.154;2023-06-26T13:57:07;34.40;54.50
10848;DHT22;5477;48.806;9.154;2023-06-26T13:59:37;34.30;54.30
10848;DHT22;5477;48.806;9.154;2023-06-26T14:02:06;34.30;53.90
10848;DHT22;5477;48.806;9.154;2023-06-26T14:04:34;33.80;54.70
10848;DHT22;5477;48.806;9.154;2023-06-26T14:07:05;33.30;55.60
10848;DHT22;5477;48.806;9.154;2023-06-26T14:09:34;33.70;55.30
10848;DHT22;5477;48.806;9.154;2023-06-26T14:12:02;33.80;55.00
10848;DHT22;5477;48.806;9.154;2023-06-26T14:14:30;33.90;55.10
10848;DHT22;5477;48.806;9.154;2023-06-26T14:16:58;34.20;54.50
10848;DHT22;5477;48.806;9.154;2023-06-26T14:19:26;34.40;54.60
10848;DHT22;5477;48.806;9.154;2023-06-26T14:21:54;34.60;53.70
10848;DHT22;5477;48.806;9.154;2023-06-26T14:24:24;34.00;54.00
10848;DHT22;5477;48.806;9.154;2023-06-26T14:26:52;33.70;54.40
10848;DHT22;5477;48.806;9.154;2023-06-26T14:29:20;33.40;54.90
10848;DHT22;5477;48.806;9.154;2023-06-26T14:31:48;33.80;54.60
10848;DHT22;5477;48.806;9.154;2023-06-26T14:34:18;33.60;54.00
10848;DHT22;5477;48.806;9.154;2023-06-26T14:36:46;33.20;54.70
10848;DHT22;5477;48.806;9.154;2023-06-26T14:39:14;33.80;54.50
10848;DHT22;5477;48.806;9.154;2023-06-26T14:41:44;34.50;53.10
10848;DHT22;5477;48.806;9.154;2023-06-26T14:44:14;34.30;53.20
10848;DHT22;5477;48.806;9.154;2023-06-26T14:46:43;34.40;53.50
10848;DHT22;5477;48.806;9.154;2023-06-26T14:49:11;34.20;54.00
10848;DHT22;5477;48.806;9.154;2023-06-26T14:51:39;34.50;53.60
10848;DHT22;5477;48.806;9.154;2023-06-26T14:54:07;34.70;53.90
10848;DHT22;5477;48.806;9.154;2023-06-26T14:56:35;34.50;54.00
10848;DHT22;5477;48.806;9.154;2023-06-26T14:59:05;34.60;53.80
10848;DHT22;5477;48.806;9.154;2023-06-26T15:01:34;34.70;53.90
10848;DHT22;5477;48.806;9.154;2023-06-26T15:04:02;34.90;53.20
10848;DHT22;5477;48.806;9.154;2023-06-26T15:06:30;34.80;53.10
10848;DHT22;5477;48.806;9.154;2023-06-26T15:08:59;34.90;53.20
10848;DHT22;5477;48.806;9.154;2023-06-26T15:11:27;34.30;53.40
10848;DHT22;5477;48.806;9.154;2023-06-26T15:13:55;33.90;54.10
10848;DHT22;5477;48.806;9.154;2023-06-26T15:16:25;33.70;54.60
10848;DHT22;5477;48.806;9.154;2023-06-26T15:18:53;33.80;54.00
10848;DHT22;5477;48.806;9.154;2023-06-26T15:21:21;33.80;54.20
10848;DHT22;5477;48.806;9.154;2023-06-26T15:23:50;34.00;53.80
10848;DHT22;5477;48.806;9.154;2023-06-26T15:26:18;33.00;54.50
10848;DHT22;5477;48.806;9.154;2023-06-26T15:28:46;32.40;55.40
10848;DHT22;5477;48.806;9.154;2023-06-26T15:31:16;32.40;55.80
10848;DHT22;5477;48.806;9.154;2023-06-26T15:33:46;32.30;55.80
10848;DHT22;5477;48.806;9.154;2023-06-26T15:36:14;31.70;56.20
10848;DHT22;5477;48.806;9.154;2023-06-26T15:38:42;31.40;56.90
10848;DHT22;5477;48.806;9.154;2023-06-26T15:41:10;31.40;56.40
10848;DHT22;5477;48.806;9.154;2023-06-26T15:43:38;31.00;56.90
10848;DHT22;5477;48.806;9.154;2023-06-26T15:46:07;30.80;57.80
10848;DHT22;5477;48.806;9.154;2023-06-26T15:48:35;30.90;57.80
10848;DHT22;5477;48.806;9.154;2023-06-26T15:51:09;30.90;57.10
10848;DHT22;5477;48.806;9.154;2023-06-26T15:53:40;31.00;57.50
10848;DHT22;5477;48.806;9.154;2023-06-26T15:56:10;30.80;57.90
10848;DHT22;5477;48.806;9.154;2023-06-26T15:58:40;30.60;58.40